createdAt,value
2023-02-15T00:00:12.163Z,4.93
2023-02-15T00:01:12.080Z,4.94
2023-02-15T00:02:12.333Z,4.9
2023-02-15T00:03:12.299Z,4.96
2023-02-15T00:04:11.983Z,4.93
2023-02-15T00:05:11.969Z,5
2023-02-15T00:06:11.923Z,4.97
2023-02-15T00:07:11.948Z,4.9
2023-02-15T00:08:11.847Z,4.87
2023-02-15T00:09:11.809Z,4.82
2023-02-15T00:10:11.773Z,4.82
2023-02-15T00:11:11.740Z,4.9
2023-02-15T00:12:11.700Z,4.8
2023-02-15T00:13:11.678Z,4.82
2023-02-15T00:14:11.695Z,4.9
2023-02-15T00:15:11.668Z,4.9
2023-02-15T00:16:11.709Z,4.87
2023-02-15T00:17:11.545Z,4.89
2023-02-15T00:18:11.535Z,4.75
2023-02-15T00:19:11.524Z,4.82
2023-02-15T00:20:11.464Z,4.74
2023-02-15T00:21:11.394Z,4.68
2023-02-15T00:22:11.368Z,4.71
2023-02-15T00:23:11.343Z,4.62
2023-02-15T00:24:11.316Z,4.58
2023-02-15T00:25:11.257Z,4.55
2023-02-15T00:26:11.242Z,4.62
2023-02-15T00:27:11.209Z,4.63
2023-02-15T00:28:11.162Z,4.55
2023-02-15T00:29:11.187Z,4.63
2023-02-15T00:30:11.211Z,4.58
2023-02-15T00:31:11.490Z,4.62
2023-02-15T00:32:11.017Z,4.62
2023-02-15T00:33:10.981Z,4.63
2023-02-15T00:34:10.981Z,4.56
2023-02-15T00:35:10.965Z,4.58
2023-02-15T00:36:10.888Z,4.5
2023-02-15T00:37:10.861Z,4.44
2023-02-15T00:38:10.824Z,4.44
2023-02-15T00:39:10.783Z,4.38
2023-02-15T00:40:10.757Z,4.28
2023-02-15T00:41:10.730Z,4.34
2023-02-15T00:42:10.687Z,4.34
2023-02-15T00:43:10.643Z,4.3
2023-02-15T00:44:10.616Z,4.32
2023-02-15T00:45:10.580Z,4.37
2023-02-15T00:46:10.714Z,4.26
2023-02-15T00:47:10.673Z,4.26
2023-02-15T00:48:10.469Z,4.38
2023-02-15T00:49:10.480Z,4.34
2023-02-15T00:50:10.436Z,4.37
2023-02-15T00:51:10.428Z,4.31
2023-02-15T00:52:10.107Z,4.31
2023-02-15T00:53:10.302Z,4.34
2023-02-15T00:54:10.268Z,4.34
2023-02-15T00:55:10.230Z,4.32
2023-02-15T00:56:10.213Z,4.31
2023-02-15T00:57:10.165Z,4.35
2023-02-15T00:58:10.142Z,4.31
2023-02-15T00:59:10.100Z,4.34
2023-02-15T01:00:10.079Z,4.28
2023-02-15T01:01:10.228Z,4.24
2023-02-15T01:02:09.988Z,4.24
2023-02-15T01:03:09.985Z,4.3
2023-02-15T01:04:10.157Z,4.31
2023-02-15T01:05:09.927Z,4.28
2023-02-15T01:06:09.883Z,4.34
2023-02-15T01:07:09.875Z,4.3
2023-02-15T01:08:09.789Z,4.35
2023-02-15T01:09:09.774Z,4.3
2023-02-15T01:10:09.728Z,4.26
2023-02-15T01:11:10.699Z,4.2
2023-02-15T01:12:09.670Z,4.22
2023-02-15T01:13:09.619Z,4.14
2023-02-15T01:14:09.579Z,4.14
2023-02-15T01:15:09.568Z,4.1
2023-02-15T01:16:10.451Z,4.17
2023-02-15T01:17:09.471Z,4.1
2023-02-15T01:18:09.469Z,3.99
2023-02-15T01:19:09.445Z,4.04
2023-02-15T01:20:09.375Z,4.01
2023-02-15T01:21:09.354Z,4.04
2023-02-15T01:22:09.376Z,4.05
2023-02-15T01:23:09.315Z,4.05
2023-02-15T01:24:09.292Z,4.02
2023-02-15T01:25:09.200Z,3.92
2023-02-15T01:26:09.262Z,3.94
2023-02-15T01:27:09.142Z,3.92
2023-02-15T01:28:09.126Z,4.04
2023-02-15T01:29:09.062Z,4.05
2023-02-15T01:30:09.185Z,3.95
2023-02-15T01:31:09.439Z,3.92
2023-02-15T01:32:09.348Z,3.98
2023-02-15T01:33:08.931Z,3.98
2023-02-15T01:34:08.907Z,3.92
2023-02-15T01:35:08.847Z,3.94
2023-02-15T01:36:08.827Z,3.94
2023-02-15T01:37:08.799Z,3.95
2023-02-15T01:38:08.776Z,4.01
2023-02-15T01:39:08.793Z,3.95
2023-02-15T01:40:08.673Z,3.96
2023-02-15T01:41:08.642Z,3.96
2023-02-15T01:42:08.625Z,3.96
2023-02-15T01:43:08.575Z,3.92
2023-02-15T01:44:08.567Z,3.95
2023-02-15T01:45:08.522Z,3.88
2023-02-15T01:46:09.037Z,3.91
2023-02-15T01:47:08.445Z,3.88
2023-02-15T01:48:08.406Z,3.86
2023-02-15T01:49:08.377Z,3.8
2023-02-15T01:50:08.347Z,3.81
2023-02-15T01:51:08.894Z,3.87
2023-02-15T01:52:08.259Z,3.86
2023-02-15T01:53:08.246Z,3.77
2023-02-15T01:54:08.215Z,3.76
2023-02-15T01:55:10.319Z,3.84
2023-02-15T01:56:08.554Z,3.76
2023-02-15T01:57:08.093Z,3.77
2023-02-15T01:58:08.079Z,3.88
2023-02-15T01:59:07.795Z,3.83
2023-02-15T02:00:07.993Z,3.81
2023-02-15T02:01:07.991Z,3.87
2023-02-15T02:02:07.925Z,3.77
2023-02-15T02:03:08.211Z,3.86
2023-02-15T02:04:07.904Z,3.83
2023-02-15T02:05:07.823Z,3.76
2023-02-15T02:06:08.067Z,3.88
2023-02-15T02:07:07.788Z,3.88
2023-02-15T02:08:07.710Z,3.78
2023-02-15T02:09:07.692Z,3.76
2023-02-15T02:10:07.747Z,3.66
2023-02-15T02:11:07.659Z,3.66
2023-02-15T02:12:07.558Z,3.7
2023-02-15T02:13:07.528Z,3.63
2023-02-15T02:14:07.496Z,3.66
2023-02-15T02:15:07.496Z,3.68
2023-02-15T02:16:08.289Z,3.65
2023-02-15T02:17:07.399Z,3.68
2023-02-15T02:18:07.348Z,3.65
2023-02-15T02:19:07.320Z,3.62
2023-02-15T02:20:07.291Z,3.7
2023-02-15T02:21:07.264Z,3.78
2023-02-15T02:22:07.220Z,3.8
2023-02-15T02:23:07.199Z,3.84
2023-02-15T02:24:07.141Z,3.81
2023-02-15T02:25:07.105Z,3.74
2023-02-15T02:26:07.478Z,3.87
2023-02-15T02:27:07.092Z,3.91
2023-02-15T02:28:07.000Z,3.86
2023-02-15T02:29:06.967Z,3.88
2023-02-15T02:30:07.244Z,3.94
2023-02-15T02:31:07.359Z,3.94
2023-02-15T02:32:07.080Z,3.95
2023-02-15T02:33:06.838Z,3.98
2023-02-15T02:34:06.800Z,3.95
2023-02-15T02:35:06.763Z,4.04
2023-02-15T02:36:07.134Z,4.08
2023-02-15T02:37:06.692Z,3.99
2023-02-15T02:38:06.657Z,3.94
2023-02-15T02:39:06.616Z,4.06
2023-02-15T02:40:06.592Z,4.05
2023-02-15T02:41:06.706Z,4.06
2023-02-15T02:42:06.577Z,3.99
2023-02-15T02:43:06.551Z,4.05
2023-02-15T02:44:06.447Z,3.94
2023-02-15T02:45:06.432Z,3.99
2023-02-15T02:46:07.234Z,3.98
2023-02-15T02:47:06.340Z,4.02
2023-02-15T02:48:06.314Z,3.92
2023-02-15T02:49:06.279Z,3.99
2023-02-15T02:50:06.257Z,3.94
2023-02-15T02:51:06.217Z,3.91
2023-02-15T02:52:06.177Z,3.92
2023-02-15T02:53:06.134Z,3.94
2023-02-15T02:54:06.103Z,3.95
2023-02-15T02:55:06.089Z,3.88
2023-02-15T02:56:06.800Z,3.91
2023-02-15T02:57:06.000Z,3.91
2023-02-15T02:58:05.987Z,3.92
2023-02-15T02:59:05.979Z,3.91
2023-02-15T03:00:05.887Z,3.84
2023-02-15T03:01:05.850Z,3.87
2023-02-15T03:02:06.041Z,3.91
2023-02-15T03:03:06.119Z,3.96
2023-02-15T03:04:05.758Z,3.91
2023-02-15T03:05:05.715Z,3.86
2023-02-15T03:06:06.398Z,3.83
2023-02-15T03:07:05.646Z,3.8
2023-02-15T03:08:05.615Z,3.73
2023-02-15T03:09:05.578Z,3.65
2023-02-15T03:10:05.551Z,3.68
2023-02-15T03:11:05.503Z,3.69
2023-02-15T03:12:05.468Z,3.56
2023-02-15T03:13:05.452Z,3.58
2023-02-15T03:14:05.463Z,3.44
2023-02-15T03:15:05.428Z,3.48
2023-02-15T03:16:06.434Z,3.47
2023-02-15T03:17:05.300Z,3.41
2023-02-15T03:18:05.266Z,3.36
2023-02-15T03:19:05.231Z,3.34
2023-02-15T03:20:05.204Z,3.29
2023-02-15T03:21:05.161Z,3.23
2023-02-15T03:22:05.124Z,3.21
2023-02-15T03:23:05.104Z,3.14
2023-02-15T03:24:05.066Z,3.18
2023-02-15T03:25:05.107Z,3.13
2023-02-15T03:26:05.858Z,3.1
2023-02-15T03:27:04.950Z,3.05
2023-02-15T03:28:04.915Z,3.01
2023-02-15T03:29:04.868Z,3.01
2023-02-15T03:30:05.130Z,3.07
2023-02-15T03:31:05.292Z,3.04
2023-02-15T03:32:05.290Z,2.93
2023-02-15T03:33:04.746Z,2.95
2023-02-15T03:34:04.760Z,3.01
2023-02-15T03:35:04.668Z,2.92
2023-02-15T03:36:05.730Z,2.89
2023-02-15T03:37:06.772Z,2.9
2023-02-15T03:38:04.566Z,2.92
2023-02-15T03:39:04.550Z,2.93
2023-02-15T03:40:04.512Z,3.01
2023-02-15T03:41:04.473Z,2.92
2023-02-15T03:42:04.423Z,2.93
2023-02-15T03:43:04.408Z,2.95
2023-02-15T03:44:04.378Z,2.95
2023-02-15T03:45:04.340Z,2.89
2023-02-15T03:46:05.233Z,2.95
2023-02-15T03:47:04.428Z,2.9
2023-02-15T03:48:04.252Z,2.9
2023-02-15T03:49:04.181Z,2.89
2023-02-15T03:50:03.924Z,2.82
2023-02-15T03:51:04.110Z,2.89
2023-02-15T03:52:04.068Z,2.83
2023-02-15T03:53:04.167Z,2.86
2023-02-15T03:54:04.012Z,2.79
2023-02-15T03:55:03.970Z,2.8
2023-02-15T03:56:04.502Z,2.8
2023-02-15T03:57:03.941Z,2.77
2023-02-15T03:58:03.865Z,2.79
2023-02-15T03:59:03.824Z,2.79
2023-02-15T04:00:03.899Z,2.82
2023-02-15T04:01:03.747Z,2.74
2023-02-15T04:02:03.831Z,2.71
2023-02-15T04:03:03.910Z,2.64
2023-02-15T04:04:03.737Z,2.67
2023-02-15T04:05:03.613Z,2.83
2023-02-15T04:06:04.390Z,2.82
2023-02-15T04:07:03.551Z,2.77
2023-02-15T04:08:03.507Z,2.75
2023-02-15T04:09:03.473Z,2.65
2023-02-15T04:10:03.185Z,2.69
2023-02-15T04:11:03.424Z,2.72
2023-02-15T04:12:03.383Z,2.64
2023-02-15T04:13:03.323Z,2.67
2023-02-15T04:14:03.300Z,2.67
2023-02-15T04:15:03.282Z,2.67
2023-02-15T04:16:04.361Z,2.65
2023-02-15T04:17:03.181Z,2.64
2023-02-15T04:18:03.197Z,2.64
2023-02-15T04:19:03.193Z,2.67
2023-02-15T04:20:03.106Z,2.64
2023-02-15T04:21:03.033Z,2.64
2023-02-15T04:22:03.000Z,2.6
2023-02-15T04:23:02.966Z,2.64
2023-02-15T04:24:02.946Z,2.62
2023-02-15T04:25:02.903Z,2.64
2023-02-15T04:26:03.617Z,2.65
2023-02-15T04:27:02.834Z,2.68
2023-02-15T04:28:02.793Z,2.69
2023-02-15T04:29:02.752Z,2.65
2023-02-15T04:30:02.907Z,2.68
2023-02-15T04:31:02.800Z,2.65
2023-02-15T04:32:02.868Z,2.65
2023-02-15T04:33:02.614Z,2.57
2023-02-15T04:34:02.607Z,2.71
2023-02-15T04:35:02.578Z,2.64
2023-02-15T04:36:03.386Z,2.64
2023-02-15T04:37:02.507Z,2.62
2023-02-15T04:38:02.438Z,2.57
2023-02-15T04:39:02.387Z,2.6
2023-02-15T04:40:02.384Z,2.53
2023-02-15T04:41:02.339Z,2.6
2023-02-15T04:42:02.298Z,2.64
2023-02-15T04:43:02.260Z,2.6
2023-02-15T04:44:02.222Z,2.57
2023-02-15T04:45:02.181Z,2.57
2023-02-15T04:46:03.050Z,2.46
2023-02-15T04:47:02.119Z,2.51
2023-02-15T04:48:02.074Z,2.44
2023-02-15T04:49:02.054Z,2.36
2023-02-15T04:50:02.972Z,2.35
2023-02-15T04:51:02.012Z,2.47
2023-02-15T04:52:01.926Z,2.31
2023-02-15T04:53:01.928Z,2.35
2023-02-15T04:54:01.866Z,2.29
2023-02-15T04:55:01.839Z,2.31
2023-02-15T04:56:02.225Z,2.33
2023-02-15T04:57:01.741Z,2.24
2023-02-15T04:58:01.718Z,2.14
2023-02-15T04:59:01.696Z,2.11
2023-02-15T05:00:01.649Z,2.11
2023-02-15T05:01:01.829Z,2.14
2023-02-15T05:02:01.586Z,2.11
2023-02-15T05:03:01.886Z,2.07
2023-02-15T05:04:01.736Z,2.04
2023-02-15T05:05:01.493Z,1.97
2023-02-15T05:06:01.809Z,2.06
2023-02-15T05:07:01.445Z,1.99
2023-02-15T05:08:01.470Z,2
2023-02-15T05:09:01.314Z,1.99
2023-02-15T05:10:01.285Z,1.97
2023-02-15T05:11:01.248Z,2
2023-02-15T05:12:01.243Z,2.06
2023-02-15T05:13:01.190Z,2.1
2023-02-15T05:14:01.144Z,2.06
2023-02-15T05:15:01.097Z,2.02
2023-02-15T05:16:01.381Z,2.11
2023-02-15T05:17:01.150Z,2.11
2023-02-15T05:18:00.998Z,2.08
2023-02-15T05:19:00.960Z,2.13
2023-02-15T05:20:00.934Z,2.15
2023-02-15T05:21:00.889Z,2.13
2023-02-15T05:22:00.886Z,2.08
2023-02-15T05:23:00.930Z,2.14
2023-02-15T05:24:00.786Z,2.1
2023-02-15T05:25:00.772Z,2.13
2023-02-15T05:26:00.997Z,2.26
2023-02-15T05:27:00.694Z,2.1
2023-02-15T05:28:00.635Z,2.15
2023-02-15T05:29:00.633Z,2.17
2023-02-15T05:30:01.105Z,2.14
2023-02-15T05:31:01.383Z,2.28
2023-02-15T05:32:01.234Z,2.28
2023-02-15T05:33:00.551Z,2.31
2023-02-15T05:34:00.433Z,2.26
2023-02-15T05:35:00.394Z,2.25
2023-02-15T05:36:01.975Z,2.28
2023-02-15T05:37:00.378Z,2.28
2023-02-15T05:38:00.343Z,2.15
2023-02-15T05:39:00.302Z,2.24
2023-02-15T05:40:00.209Z,2.24
2023-02-15T05:41:00.178Z,2.25
2023-02-15T05:42:00.138Z,2.25
2023-02-15T05:43:00.123Z,2.15
2023-02-15T05:44:00.106Z,2.15
2023-02-15T05:45:00.046Z,2.22
2023-02-15T05:46:00.206Z,2.18
2023-02-15T05:46:59.972Z,2.31
2023-02-15T05:47:59.932Z,2.26
2023-02-15T05:48:59.902Z,2.28
2023-02-15T05:49:59.852Z,2.32
2023-02-15T05:50:59.816Z,2.39
2023-02-15T05:52:00.165Z,2.36
2023-02-15T05:52:59.746Z,2.24
2023-02-15T05:53:59.736Z,2.39
2023-02-15T05:54:59.731Z,2.29
2023-02-15T05:56:00.216Z,2.42
2023-02-15T05:56:59.620Z,2.44
2023-02-15T05:57:59.569Z,2.39
2023-02-15T05:58:59.327Z,2.46
2023-02-15T05:59:59.529Z,2.46
2023-02-15T06:00:59.478Z,2.51
2023-02-15T06:01:59.500Z,2.47
2023-02-15T06:02:59.415Z,2.46
2023-02-15T06:03:59.400Z,2.44
2023-02-15T06:04:59.319Z,2.49
2023-02-15T06:05:59.401Z,2.49
2023-02-15T06:06:59.264Z,2.44
2023-02-15T06:07:58.969Z,2.43
2023-02-15T06:08:59.170Z,2.56
2023-02-15T06:09:59.157Z,2.53
2023-02-15T06:10:59.172Z,2.61
2023-02-15T06:11:59.069Z,2.6
2023-02-15T06:12:59.108Z,2.61
2023-02-15T06:13:58.994Z,2.68
2023-02-15T06:14:58.968Z,2.57
2023-02-15T06:15:59.190Z,2.56
2023-02-15T06:16:58.893Z,2.56
2023-02-15T06:17:58.853Z,2.57
2023-02-15T06:18:58.818Z,2.62
2023-02-15T06:19:58.787Z,2.64
2023-02-15T06:20:58.746Z,2.62
2023-02-15T06:21:58.710Z,2.68
2023-02-15T06:22:58.674Z,2.65
2023-02-15T06:23:58.640Z,2.68
2023-02-15T06:24:58.608Z,2.62
2023-02-15T06:25:58.599Z,2.68
2023-02-15T06:26:58.637Z,2.57
2023-02-15T06:27:58.557Z,2.67
2023-02-15T06:28:58.462Z,2.65
2023-02-15T06:29:58.558Z,2.62
2023-02-15T06:30:58.846Z,2.51
2023-02-15T06:31:58.909Z,2.53
2023-02-15T06:32:58.333Z,2.54
2023-02-15T06:33:58.284Z,2.44
2023-02-15T06:34:58.243Z,2.53
2023-02-15T06:35:58.207Z,2.51
2023-02-15T06:36:58.196Z,2.56
2023-02-15T06:37:58.140Z,2.5
2023-02-15T06:38:58.102Z,2.42
2023-02-15T06:39:58.064Z,2.46
2023-02-15T06:40:58.046Z,2.53
2023-02-15T06:41:58.026Z,2.46
2023-02-15T06:42:57.999Z,2.53
2023-02-15T06:43:57.691Z,2.49
2023-02-15T06:44:57.951Z,2.47
2023-02-15T06:45:57.659Z,2.49
2023-02-15T06:46:57.838Z,2.44
2023-02-15T06:47:57.816Z,2.47
2023-02-15T06:48:57.778Z,2.43
2023-02-15T06:49:57.717Z,2.57
2023-02-15T06:50:57.707Z,2.53
2023-02-15T06:51:57.652Z,2.72
2023-02-15T06:52:57.599Z,2.65
2023-02-15T06:53:57.571Z,2.64
2023-02-15T06:54:57.535Z,2.69
2023-02-15T06:55:57.502Z,2.8
2023-02-15T06:56:57.494Z,2.8
2023-02-15T06:57:57.464Z,2.79
2023-02-15T06:58:57.431Z,2.89
2023-02-15T06:59:57.347Z,2.98
2023-02-15T07:00:57.332Z,2.93
2023-02-15T07:01:57.614Z,3
2023-02-15T07:02:57.243Z,3.03
2023-02-15T07:03:57.224Z,3.08
2023-02-15T07:04:57.335Z,3.16
2023-02-15T07:05:57.159Z,3.16
2023-02-15T07:06:58.863Z,3.25
2023-02-15T07:07:57.067Z,3.32
2023-02-15T07:08:57.024Z,3.34
2023-02-15T07:09:57.013Z,3.34
2023-02-15T07:10:56.976Z,3.42
2023-02-15T07:11:56.928Z,3.4
2023-02-15T07:12:56.890Z,3.4
2023-02-15T07:13:56.874Z,3.51
2023-02-15T07:14:56.894Z,3.53
2023-02-15T07:15:56.921Z,3.56
2023-02-15T07:16:56.738Z,3.58
2023-02-15T07:17:56.744Z,3.51
2023-02-15T07:18:56.846Z,3.5
2023-02-15T07:19:56.651Z,3.42
2023-02-15T07:20:56.611Z,3.41
2023-02-15T07:21:56.327Z,3.32
2023-02-15T07:22:56.305Z,3.44
2023-02-15T07:23:56.509Z,3.44
2023-02-15T07:24:56.216Z,3.36
2023-02-15T07:25:56.423Z,3.23
2023-02-15T07:26:56.396Z,3.44
2023-02-15T07:27:56.110Z,3.26
2023-02-15T07:28:56.080Z,3.23
2023-02-15T07:29:56.630Z,3.36
2023-02-15T07:30:56.436Z,3.45
2023-02-15T07:31:56.305Z,3.42
2023-02-15T07:32:56.175Z,3.37
2023-02-15T07:33:56.337Z,3.4
2023-02-15T07:34:55.869Z,3.47
2023-02-15T07:35:56.116Z,3.58
2023-02-15T07:36:57.339Z,3.48
2023-02-15T07:37:56.002Z,3.55
2023-02-15T07:38:56.223Z,3.55
2023-02-15T07:39:55.935Z,3.55
2023-02-15T07:40:55.895Z,3.47
2023-02-15T07:41:55.631Z,3.58
2023-02-15T07:42:58.457Z,3.56
2023-02-15T07:43:55.825Z,3.59
2023-02-15T07:44:55.768Z,3.62
2023-02-15T07:45:56.164Z,3.56
2023-02-15T07:46:55.926Z,3.6
2023-02-15T07:47:55.740Z,3.63
2023-02-15T07:48:55.615Z,3.63
2023-02-15T07:49:55.989Z,3.69
2023-02-15T07:50:55.552Z,3.62
2023-02-15T07:51:55.523Z,3.66
2023-02-15T07:52:55.477Z,3.68
2023-02-15T07:53:55.446Z,3.68
2023-02-15T07:54:55.437Z,3.7
2023-02-15T07:55:55.382Z,3.77
2023-02-15T07:56:55.575Z,3.86
2023-02-15T07:57:55.353Z,3.81
2023-02-15T07:58:55.335Z,3.88
2023-02-15T07:59:55.253Z,3.88
2023-02-15T08:00:54.976Z,3.88
2023-02-15T08:01:54.985Z,3.92
2023-02-15T08:02:55.402Z,3.92
2023-02-15T08:03:55.062Z,3.92
2023-02-15T08:04:55.072Z,3.99
2023-02-15T08:05:55.040Z,3.95
2023-02-15T08:06:54.752Z,4.01
2023-02-15T08:07:54.963Z,4.08
2023-02-15T08:08:54.693Z,4.05
2023-02-15T08:09:54.898Z,3.95
2023-02-15T08:10:54.862Z,4.01
2023-02-15T08:11:54.834Z,4.08
2023-02-15T08:12:54.803Z,4.12
2023-02-15T08:13:54.799Z,4.14
2023-02-15T08:14:54.726Z,4.2
2023-02-15T08:15:54.695Z,4.14
2023-02-15T08:16:55.089Z,4.32
2023-02-15T08:17:54.657Z,4.3
2023-02-15T08:18:54.661Z,4.3
2023-02-15T08:19:54.550Z,4.31
2023-02-15T08:20:54.565Z,4.41
2023-02-15T08:21:54.495Z,4.42
2023-02-15T08:22:54.229Z,4.49
2023-02-15T08:23:54.438Z,4.53
2023-02-15T08:24:54.421Z,4.62
2023-02-15T08:25:54.372Z,4.55
2023-02-15T08:26:54.308Z,4.59
2023-02-15T08:27:54.306Z,4.71
2023-02-15T08:28:54.253Z,4.71
2023-02-15T08:29:54.327Z,4.74
2023-02-15T08:30:54.252Z,4.82
2023-02-15T08:31:54.529Z,4.84
2023-02-15T08:32:54.122Z,4.93
2023-02-15T08:33:54.106Z,4.97
2023-02-15T08:34:54.276Z,5.02
2023-02-15T08:35:53.768Z,5.05
2023-02-15T08:36:53.752Z,5.11
2023-02-15T08:37:53.941Z,5.14
2023-02-15T08:38:53.923Z,5.21
2023-02-15T08:39:53.630Z,5.29
2023-02-15T08:40:53.842Z,5.3
2023-02-15T08:41:53.808Z,5.36
2023-02-15T08:42:53.823Z,5.39
2023-02-15T08:43:53.736Z,5.41
2023-02-15T08:44:55.171Z,5.47
2023-02-15T08:45:53.782Z,5.47
2023-02-15T08:46:53.703Z,5.51
2023-02-15T08:47:53.612Z,5.56
2023-02-15T08:48:53.605Z,5.61
2023-02-15T08:49:53.603Z,5.61
2023-02-15T08:50:53.555Z,5.61
2023-02-15T08:51:53.525Z,5.71
2023-02-15T08:52:53.448Z,5.71
2023-02-15T08:53:53.409Z,5.75
2023-02-15T08:54:53.371Z,5.75
2023-02-15T08:55:53.351Z,5.87
2023-02-15T08:56:53.331Z,5.87
2023-02-15T08:57:53.274Z,5.94
2023-02-15T08:58:53.237Z,6.02
2023-02-15T08:59:53.210Z,6.09
2023-02-15T09:00:53.293Z,6.16
2023-02-15T09:01:53.350Z,6.16
2023-02-15T09:02:53.014Z,6.31
2023-02-15T09:03:53.197Z,6.39
2023-02-15T09:04:52.823Z,6.49
2023-02-15T09:05:52.897Z,6.52
2023-02-15T09:06:54.108Z,6.59
2023-02-15T09:07:52.735Z,6.75
2023-02-15T09:08:52.913Z,6.69
2023-02-15T09:09:52.883Z,6.75
2023-02-15T09:10:52.841Z,6.87
2023-02-15T09:11:59.583Z,6.89
2023-02-15T09:12:52.774Z,6.97
2023-02-15T09:13:52.740Z,7.02
2023-02-15T09:14:52.730Z,6.97
2023-02-15T09:15:52.669Z,7.13
2023-02-15T09:16:52.735Z,7.1
2023-02-15T09:17:52.613Z,7.2
2023-02-15T09:18:52.344Z,7.18
2023-02-15T09:19:52.350Z,7.33
2023-02-15T09:20:52.512Z,7.35
2023-02-15T09:21:52.522Z,7.45
2023-02-15T09:22:53.778Z,7.5
2023-02-15T09:23:52.415Z,7.56
2023-02-15T09:24:52.395Z,7.63
2023-02-15T09:25:52.350Z,7.79
2023-02-15T09:26:52.340Z,7.75
2023-02-15T09:27:52.275Z,7.83
2023-02-15T09:28:52.256Z,7.85
2023-02-15T09:29:52.372Z,8.01
2023-02-15T09:30:52.459Z,7.95
2023-02-15T09:31:52.377Z,8.05
2023-02-15T09:32:52.130Z,8.09
2023-02-15T09:33:51.881Z,8.15
2023-02-15T09:34:52.065Z,8.18
2023-02-15T09:35:51.792Z,8.12
2023-02-15T09:36:52.094Z,8.24
2023-02-15T09:37:51.990Z,8.18
2023-02-15T09:38:52.029Z,8.23
2023-02-15T09:39:53.843Z,8.34
2023-02-15T09:40:51.868Z,8.37
2023-02-15T09:41:51.608Z,8.33
2023-02-15T09:42:51.800Z,8.46
2023-02-15T09:43:51.772Z,8.53
2023-02-15T09:44:51.744Z,8.52
2023-02-15T09:45:51.868Z,8.64
2023-02-15T09:46:51.923Z,8.63
2023-02-15T09:47:51.656Z,8.69
2023-02-15T09:48:51.627Z,8.7
2023-02-15T09:49:51.618Z,8.82
2023-02-15T09:50:51.556Z,8.88
2023-02-15T09:51:51.579Z,8.88
2023-02-15T09:52:51.260Z,8.95
2023-02-15T09:53:51.647Z,9
2023-02-15T09:54:51.587Z,9.04
2023-02-15T09:55:51.407Z,9.11
2023-02-15T09:56:51.367Z,9.21
2023-02-15T09:57:51.574Z,9.25
2023-02-15T09:58:51.342Z,9.23
2023-02-15T09:59:51.270Z,9.23
2023-02-15T10:00:50.998Z,9.4
2023-02-15T10:01:51.382Z,9.32
2023-02-15T10:02:51.165Z,9.41
2023-02-15T10:03:51.170Z,9.48
2023-02-15T10:04:51.412Z,9.55
2023-02-15T10:05:51.094Z,9.51
2023-02-15T10:06:51.084Z,9.56
2023-02-15T10:07:51.025Z,9.58
2023-02-15T10:08:50.989Z,9.58
2023-02-15T10:09:50.986Z,9.73
2023-02-15T10:10:51.014Z,9.72
2023-02-15T10:11:50.662Z,9.76
2023-02-15T10:12:50.864Z,9.82
2023-02-15T10:13:50.841Z,9.76
2023-02-15T10:14:50.815Z,9.94
2023-02-15T10:15:50.800Z,9.98
2023-02-15T10:16:51.129Z,9.94
2023-02-15T10:17:50.744Z,10.05
2023-02-15T10:18:50.691Z,10.02
2023-02-15T10:19:50.704Z,10.09
2023-02-15T10:20:50.620Z,10.09
2023-02-15T10:21:50.350Z,10.16
2023-02-15T10:22:50.558Z,10.33
2023-02-15T10:23:50.550Z,10.37
2023-02-15T10:24:53.613Z,10.33
2023-02-15T10:25:50.502Z,10.38
2023-02-15T10:26:50.504Z,10.6
2023-02-15T10:27:50.424Z,10.54
2023-02-15T10:28:50.158Z,10.64
2023-02-15T10:29:50.403Z,10.69
2023-02-15T10:30:50.746Z,10.75
2023-02-15T10:31:50.812Z,10.82
2023-02-15T10:32:50.278Z,10.89
2023-02-15T10:33:50.002Z,10.97
2023-02-15T10:34:50.204Z,10.93
2023-02-15T10:35:51.456Z,11.1
2023-02-15T10:36:50.145Z,11.07
2023-02-15T10:37:50.113Z,11.22
2023-02-15T10:38:49.843Z,11.23
2023-02-15T10:39:50.051Z,11.35
2023-02-15T10:40:49.813Z,11.36
2023-02-15T10:41:52.117Z,11.32
2023-02-15T10:42:49.988Z,11.43
2023-02-15T10:43:49.973Z,11.37
2023-02-15T10:44:49.899Z,11.5
2023-02-15T10:45:49.996Z,11.62
2023-02-15T10:46:49.863Z,11.65
2023-02-15T10:47:49.897Z,11.59
2023-02-15T10:48:49.805Z,11.55
2023-02-15T10:49:49.750Z,11.69
2023-02-15T10:50:49.763Z,11.73
2023-02-15T10:51:49.750Z,11.78
2023-02-15T10:52:49.656Z,11.86
2023-02-15T10:53:49.394Z,11.97
2023-02-15T10:54:49.389Z,11.95
2023-02-15T10:55:49.394Z,12
2023-02-15T10:56:49.695Z,12
2023-02-15T10:57:49.661Z,12.12
2023-02-15T10:58:49.530Z,12.15
2023-02-15T10:59:49.457Z,12.21
2023-02-15T11:00:49.436Z,12.25
2023-02-15T11:01:49.714Z,12.27
2023-02-15T11:02:49.400Z,12.32
2023-02-15T11:03:49.104Z,12.36
2023-02-15T11:04:49.441Z,12.5
2023-02-15T11:05:49.071Z,12.49
2023-02-15T11:06:49.323Z,12.49
2023-02-15T11:07:50.251Z,12.62
2023-02-15T11:08:49.452Z,12.49
2023-02-15T11:09:49.171Z,12.5
2023-02-15T11:10:49.140Z,12.64
2023-02-15T11:11:48.877Z,12.7
2023-02-15T11:12:49.156Z,12.73
2023-02-15T11:13:49.091Z,12.68
2023-02-15T11:14:49.249Z,12.7
2023-02-15T11:15:49.125Z,12.86
2023-02-15T11:16:48.971Z,12.78
2023-02-15T11:17:49.122Z,12.8
2023-02-15T11:18:48.923Z,12.9
2023-02-15T11:19:48.904Z,12.85
2023-02-15T11:20:48.969Z,12.85
2023-02-15T11:21:48.848Z,12.91
2023-02-15T11:22:48.839Z,12.98
2023-02-15T11:23:48.788Z,12.85
2023-02-15T11:24:48.745Z,12.94
2023-02-15T11:25:48.720Z,12.94
2023-02-15T11:26:48.696Z,13.01
2023-02-15T11:27:51.390Z,13.01
2023-02-15T11:28:48.661Z,13.05
2023-02-15T11:29:48.645Z,13.19
2023-02-15T11:30:49.119Z,13.3
2023-02-15T11:31:49.245Z,13.37
2023-02-15T11:32:48.524Z,13.42
2023-02-15T11:33:48.498Z,13.5
2023-02-15T11:34:48.481Z,13.57
2023-02-15T11:35:48.453Z,13.57
2023-02-15T11:36:48.168Z,13.63
2023-02-15T11:37:48.380Z,13.59
2023-02-15T11:38:48.349Z,13.6
2023-02-15T11:39:48.091Z,13.65
2023-02-15T11:40:48.308Z,13.72
2023-02-15T11:41:48.273Z,13.71
2023-02-15T11:42:48.289Z,13.72
2023-02-15T11:43:48.092Z,13.74
2023-02-15T11:44:48.211Z,13.79
2023-02-15T11:45:48.238Z,13.72
2023-02-15T11:46:48.415Z,13.85
2023-02-15T11:47:48.106Z,13.83
2023-02-15T11:48:48.094Z,13.93
2023-02-15T11:49:48.042Z,13.92
2023-02-15T11:50:48.029Z,14.07
2023-02-15T11:51:47.771Z,14.11
2023-02-15T11:52:47.731Z,14.1
2023-02-15T11:53:47.940Z,14.11
2023-02-15T11:54:47.918Z,14.1
2023-02-15T11:55:47.921Z,14.12
2023-02-15T11:56:47.854Z,14.15
2023-02-15T11:57:47.860Z,14.23
2023-02-15T11:58:47.806Z,14.28
2023-02-15T11:59:47.800Z,14.22
2023-02-15T12:00:47.829Z,14.33
2023-02-15T12:01:47.762Z,14.37
2023-02-15T12:02:47.920Z,14.47
2023-02-15T12:03:48.068Z,14.36
2023-02-15T12:04:47.671Z,14.47
2023-02-15T12:05:47.623Z,14.54
2023-02-15T12:06:47.588Z,14.51
2023-02-15T12:07:47.579Z,14.53
2023-02-15T12:08:47.574Z,14.65
2023-02-15T12:09:47.544Z,14.6
2023-02-15T12:10:47.491Z,14.59
2023-02-15T12:11:47.460Z,14.66
2023-02-15T12:12:47.430Z,14.62
2023-02-15T12:13:47.417Z,14.69
2023-02-15T12:14:47.379Z,14.69
2023-02-15T12:15:47.647Z,14.79
2023-02-15T12:16:47.117Z,14.85
2023-02-15T12:17:47.321Z,14.84
2023-02-15T12:18:47.341Z,14.86
2023-02-15T12:19:47.263Z,14.84
2023-02-15T12:20:47.209Z,14.86
2023-02-15T12:21:47.206Z,14.88
2023-02-15T12:22:47.156Z,14.89
2023-02-15T12:23:47.126Z,14.82
2023-02-15T12:24:47.151Z,14.77
2023-02-15T12:25:47.088Z,14.82
2023-02-15T12:26:47.065Z,14.84
2023-02-15T12:27:47.030Z,14.78
2023-02-15T12:28:46.997Z,14.78
2023-02-15T12:29:46.972Z,14.86
2023-02-15T12:30:46.969Z,14.79
2023-02-15T12:31:47.389Z,14.79
2023-02-15T12:32:47.018Z,14.86
2023-02-15T12:33:46.915Z,14.89
2023-02-15T12:34:46.882Z,14.91
2023-02-15T12:35:46.808Z,14.84
2023-02-15T12:36:46.801Z,14.96
2023-02-15T12:37:46.760Z,14.94
2023-02-15T12:38:46.749Z,14.97
2023-02-15T12:39:46.464Z,15
2023-02-15T12:40:46.685Z,14.92
2023-02-15T12:41:46.655Z,15.02
2023-02-15T12:42:46.650Z,15.09
2023-02-15T12:43:46.604Z,15.1
2023-02-15T12:44:46.572Z,15.11
2023-02-15T12:45:46.562Z,14.97
2023-02-15T12:46:48.890Z,15
2023-02-15T12:47:46.261Z,15.06
2023-02-15T12:48:46.497Z,15.09
2023-02-15T12:49:52.495Z,15.09
2023-02-15T12:50:46.442Z,14.91
2023-02-15T12:51:48.001Z,15
2023-02-15T12:52:46.137Z,14.96
2023-02-15T12:53:49.662Z,14.96
2023-02-15T12:54:46.309Z,14.99
2023-02-15T12:55:50.253Z,14.94
2023-02-15T12:56:46.277Z,15.02
2023-02-15T12:57:45.989Z,14.94
2023-02-15T12:58:46.226Z,14.96
2023-02-15T12:59:48.665Z,15.07
2023-02-15T13:00:46.717Z,15.11
2023-02-15T13:01:46.263Z,15.1
2023-02-15T13:02:46.403Z,15.03
2023-02-15T13:03:46.077Z,15.06
2023-02-15T13:04:45.867Z,15.18
2023-02-15T13:05:48.249Z,15.09
2023-02-15T13:06:46.039Z,15.15
2023-02-15T13:07:45.995Z,15.07
2023-02-15T13:08:45.932Z,15.03
2023-02-15T13:09:45.920Z,15.18
2023-02-15T13:10:45.892Z,15.19
2023-02-15T13:11:45.887Z,15.18
2023-02-15T13:12:45.826Z,15.14
2023-02-15T13:13:45.856Z,15.29
2023-02-15T13:14:45.787Z,15.19